PWSweather.com
Personal Weather Stations
Station Observations
MDHALE1
Southwest Baltimore Co., Halethorpe, MD 21227

Southwest Baltimore Co.Halethorpe, MD 21227

Lat: 39.23643, Lon: -76.696959

Elevation: 86

Station Type: Davis Vantage Pro2+

http://home.comcast.net/~halethorpe_weather/index.html

Latest ConditionsUpdated 9:30:07 PM EDT Friday, Mar 27, 2015
Currently Today's Max Today's Min Today's Average
Temperature 44.1°F6.7°C 49.9°F9.9°C 39.3°F4.1°C 44.7°F7.1°C
Dew Point 25.1°F-3.8°C 42.3°F5.7°C 25.1°F-3.8°C 34.1°F1.2°C
Winds 3.5 mph NNW5.6 kmh NNW 9.2 mph N14.8 kmh N - 3.0 mph 4.8 kmh
Wind Gusts 6.9 mph11.1 kmh 17.3 mph27.8 kmh - -
Humidity 47% 90% 40% 69%
Pressure 29.81 in1009.5 mb 29.82 in1009.8 mb 29.73 in1006.8 mb -
Precipitation - 0.39 in9.9 mm - -
Hour Temp Dew Point Humidity Winds Wind Gusts Pressure Precip Precip Rate Daily Precip Total
09:30 PM 44.1°F6.7°C 25.1°F-3.8°C 47% 3.5 mph NNW5.6 kmh NNW 6.9 mph11.1 kmh 29.81 in1009.5 mb - 0.00 in0.0 mm 0.39 in9.9 mm
09:15 PM 44.3°F6.8°C 25.8°F-3.4°C 48% 2.3 mph N3.7 kmh N 5.8 mph9.3 kmh 29.80 in1009.1 mb - 0.00 in0.0 mm 0.39 in9.9 mm
09:00 PM 44.6°F7.0°C 25.6°F-3.6°C 47% 3.5 mph N5.6 kmh N 5.8 mph9.3 kmh 29.80 in1009.1 mb - 0.00 in0.0 mm 0.39 in9.9 mm
08:45 PM 44.9°F7.2°C 25.9°F-3.4°C 47% 2.3 mph N3.7 kmh N 5.8 mph9.3 kmh 29.80 in1009.1 mb - 0.00 in0.0 mm 0.39 in9.9 mm
08:30 PM 45.1°F7.3°C 26.6°F-3.0°C 48% 4.6 mph N7.4 kmh N 10.4 mph16.7 kmh 29.79 in1008.8 mb - 0.01 in0.3 mm 0.39 in9.9 mm
08:15 PM 45.4°F7.4°C 26.8°F-2.9°C 48% Calm Calm -- 29.80 in1009.1 mb - 0.00 in0.0 mm 0.38 in9.7 mm
08:00 PM 45.6°F7.6°C 26.5°F-3.1°C 47% Calm Calm 2.3 mph3.7 kmh 29.79 in1008.8 mb - 0.00 in0.0 mm 0.38 in9.7 mm
07:45 PM 45.9°F7.7°C 26.8°F-2.9°C 47% Calm Calm -- 29.78 in1008.5 mb - 0.00 in0.0 mm 0.38 in9.7 mm
07:30 PM 46.2°F7.9°C 26.0°F-3.3°C 45% 5.8 mph NNW9.3 kmh NNW 10.4 mph16.7 kmh 29.77 in1008.1 mb - 0.00 in0.0 mm 0.38 in9.7 mm
07:15 PM 46.7°F8.2°C 25.9°F-3.4°C 44% 2.3 mph N3.7 kmh N 8.1 mph13.0 kmh 29.77 in1008.1 mb - 0.01 in0.3 mm 0.38 in9.7 mm
07:00 PM 47.1°F8.4°C 25.7°F-3.5°C 43% 8.1 mph N13.0 kmh N 12.7 mph20.4 kmh 29.77 in1008.1 mb - 0.00 in0.0 mm 0.37 in9.4 mm
06:45 PM 47.4°F8.6°C 26.6°F-3.0°C 44% 4.6 mph NNW7.4 kmh NNW 5.8 mph9.3 kmh 29.77 in1008.1 mb - 0.00 in0.0 mm 0.37 in9.4 mm
06:30 PM 47.9°F8.8°C 26.5°F-3.1°C 43% 6.9 mph NW11.1 kmh NW 10.4 mph16.7 kmh 29.75 in1007.5 mb - 0.01 in0.3 mm 0.37 in9.4 mm
06:15 PM 48.5°F9.2°C 25.8°F-3.4°C 41% 3.5 mph N5.6 kmh N 9.2 mph14.8 kmh 29.75 in1007.5 mb - 0.01 in0.3 mm 0.37 in9.4 mm
06:00 PM 49.4°F9.7°C 26.1°F-3.3°C 40% 4.6 mph N7.4 kmh N 8.1 mph13.0 kmh 29.75 in1007.5 mb - 0.00 in0.0 mm 0.36 in9.1 mm
05:45 PM 49.9°F9.9°C 26.5°F-3.1°C 40% 1.2 mph N1.9 kmh N 2.3 mph3.7 kmh 29.75 in1007.5 mb - 0.00 in0.0 mm 0.36 in9.1 mm
05:30 PM 48.8°F9.3°C 27.3°F-2.6°C 43% 5.8 mph NE9.3 kmh NE 5.8 mph9.3 kmh 29.75 in1007.5 mb - 0.01 in0.3 mm 0.36 in9.1 mm
05:15 PM 48.3°F9.1°C 27.4°F-2.6°C 44% 8.1 mph NNE13.0 kmh NNE 8.1 mph13.0 kmh 29.75 in1007.5 mb - 0.00 in0.0 mm 0.35 in8.9 mm
05:00 PM 48.3°F9.1°C 28.5°F-1.9°C 46% 3.5 mph N5.6 kmh N 4.6 mph7.4 kmh 29.75 in1007.5 mb - 0.01 in0.3 mm 0.35 in8.9 mm
04:45 PM 48.3°F9.1°C 27.9°F-2.3°C 45% 3.5 mph N5.6 kmh N 4.6 mph7.4 kmh 29.75 in1007.5 mb - 0.00 in0.0 mm 0.34 in8.6 mm
04:30 PM 48.2°F9.0°C 28.4°F-2.0°C 46% 3.5 mph WNW5.6 kmh WNW 5.8 mph9.3 kmh 29.75 in1007.5 mb - 0.00 in0.0 mm 0.34 in8.6 mm
04:15 PM 48.2°F9.0°C 28.9°F-1.7°C 47% 3.5 mph N5.6 kmh N 10.4 mph16.7 kmh 29.74 in1007.1 mb - 0.01 in0.3 mm 0.34 in8.6 mm
04:00 PM 48.1°F8.9°C 28.3°F-2.1°C 46% 2.3 mph NW3.7 kmh NW 8.1 mph13.0 kmh 29.75 in1007.5 mb - 0.00 in0.0 mm 0.33 in8.4 mm
03:45 PM 47.6°F8.7°C 28.9°F-1.7°C 48% 4.6 mph N7.4 kmh N 6.9 mph11.1 kmh 29.75 in1007.5 mb - 0.01 in0.3 mm 0.33 in8.4 mm
03:30 PM 46.7°F8.2°C 28.5°F-1.9°C 49% 4.6 mph N7.4 kmh N 8.1 mph13.0 kmh 29.75 in1007.5 mb - 0.00 in0.0 mm 0.32 in8.1 mm
03:15 PM 46.5°F8.1°C 29.8°F-1.2°C 52% 3.5 mph NNE5.6 kmh NNE 6.9 mph11.1 kmh 29.77 in1008.1 mb - 0.01 in0.3 mm 0.32 in8.1 mm
03:00 PM 46.1°F7.8°C 29.9°F-1.2°C 53% 4.6 mph N7.4 kmh N 9.2 mph14.8 kmh 29.77 in1008.1 mb - 0.00 in0.0 mm 0.31 in7.9 mm
02:45 PM 45.9°F7.7°C 29.7°F-1.3°C 53% 3.5 mph N5.6 kmh N 10.4 mph16.7 kmh 29.75 in1007.5 mb - 0.01 in0.3 mm 0.31 in7.9 mm
02:30 PM 46.0°F7.8°C 30.3°F-0.9°C 54% 1.2 mph N1.9 kmh N 3.5 mph5.6 kmh 29.79 in1008.8 mb - 0.00 in0.0 mm 0.30 in7.6 mm
02:15 PM 46.1°F7.8°C 30.3°F-0.9°C 54% 3.5 mph N5.6 kmh N 5.8 mph9.3 kmh 29.78 in1008.5 mb - 0.01 in0.3 mm 0.30 in7.6 mm
02:00 PM 46.0°F7.8°C 31.2°F-0.4°C 56% 4.6 mph N7.4 kmh N 11.5 mph18.5 kmh 29.77 in1008.1 mb - 0.01 in0.3 mm 0.29 in7.4 mm
01:45 PM 45.0°F7.2°C 29.3°F-1.5°C 54% 9.2 mph N14.8 kmh N 11.5 mph18.5 kmh 29.79 in1008.8 mb - 0.00 in0.0 mm 0.28 in7.1 mm
01:30 PM 44.7°F7.1°C 30.0°F-1.1°C 56% 4.6 mph NW7.4 kmh NW 8.1 mph13.0 kmh 29.79 in1008.8 mb - 0.01 in0.3 mm 0.28 in7.1 mm
01:15 PM 44.7°F7.1°C 31.2°F-0.4°C 59% 6.9 mph N11.1 kmh N 17.3 mph27.8 kmh 29.78 in1008.5 mb - 0.01 in0.3 mm 0.27 in6.9 mm
01:00 PM 44.4°F6.9°C 31.8°F-0.1°C 61% 6.9 mph N11.1 kmh N 12.7 mph20.4 kmh 29.78 in1008.5 mb - 0.00 in0.0 mm 0.26 in6.6 mm
12:45 PM 44.2°F6.8°C 32.8°F0.4°C 64% 3.5 mph N5.6 kmh N 5.8 mph9.3 kmh 29.78 in1008.5 mb - 0.00 in0.0 mm 0.26 in6.6 mm
12:30 PM 44.1°F6.7°C 32.3°F0.2°C 63% 4.6 mph N7.4 kmh N 12.7 mph20.4 kmh 29.79 in1008.8 mb - 0.01 in0.3 mm 0.26 in6.6 mm
12:15 PM 44.2°F6.8°C 34.3°F1.3°C 68% 4.6 mph NNW7.4 kmh NNW 5.8 mph9.3 kmh 29.81 in1009.5 mb - 0.00 in0.0 mm 0.25 in6.4 mm
12:00 PM 44.3°F6.8°C 34.4°F1.3°C 68% 4.6 mph NNW7.4 kmh NNW 8.1 mph13.0 kmh 29.81 in1009.5 mb - 0.01 in0.3 mm 0.25 in6.4 mm
11:45 AM 44.2°F6.8°C 34.6°F1.4°C 69% 8.1 mph NE13.0 kmh NE 10.4 mph16.7 kmh 29.79 in1008.8 mb - 0.00 in0.0 mm 0.24 in6.1 mm
11:30 AM 43.3°F6.3°C 35.6°F2.0°C 74% 4.6 mph NNW7.4 kmh NNW 8.1 mph13.0 kmh 29.79 in1008.8 mb - 0.00 in0.0 mm 0.24 in6.1 mm
11:15 AM 43.3°F6.3°C 36.2°F2.3°C 76% 3.5 mph N5.6 kmh N 8.1 mph13.0 kmh 29.80 in1009.1 mb - 0.01 in0.3 mm 0.24 in6.1 mm
11:00 AM 43.2°F6.2°C 36.1°F2.3°C 76% 3.5 mph N5.6 kmh N 5.8 mph9.3 kmh 29.79 in1008.8 mb - 0.01 in0.3 mm 0.23 in5.8 mm
10:45 AM 43.0°F6.1°C 36.9°F2.7°C 79% 2.3 mph N3.7 kmh N 6.9 mph11.1 kmh 29.81 in1009.5 mb - 0.01 in0.3 mm 0.23 in5.8 mm
10:30 AM 42.7°F5.9°C 37.6°F3.1°C 82% 1.2 mph N1.9 kmh N 2.3 mph3.7 kmh 29.82 in1009.8 mb - 0.00 in0.0 mm 0.22 in5.6 mm
10:15 AM 42.5°F5.8°C 37.4°F3.0°C 82% 4.6 mph N7.4 kmh N 8.1 mph13.0 kmh 29.82 in1009.8 mb - 0.01 in0.3 mm 0.22 in5.6 mm
10:00 AM 42.3°F5.7°C 37.5°F3.1°C 83% Calm Calm -- 29.80 in1009.1 mb - 0.00 in0.0 mm 0.21 in5.3 mm
09:45 AM 41.9°F5.5°C 37.7°F3.2°C 85% Calm Calm 2.3 mph3.7 kmh 29.80 in1009.1 mb - 0.01 in0.3 mm 0.21 in5.3 mm
09:30 AM 41.6°F5.3°C 37.4°F3.0°C 85% Calm Calm -- 29.80 in1009.1 mb - 0.00 in0.0 mm 0.20 in5.1 mm
09:15 AM 41.6°F5.3°C 37.4°F3.0°C 85% Calm Calm -- 29.80 in1009.1 mb - 0.01 in0.3 mm 0.20 in5.1 mm
09:00 AM 41.2°F5.1°C 37.3°F2.9°C 86% 2.3 mph NNE3.7 kmh NNE 5.8 mph9.3 kmh 29.80 in1009.1 mb - 0.00 in0.0 mm 0.19 in4.8 mm
08:45 AM 40.9°F4.9°C 36.7°F2.6°C 85% 2.3 mph NNE3.7 kmh NNE 4.6 mph7.4 kmh 29.78 in1008.5 mb - 0.01 in0.3 mm 0.19 in4.8 mm
08:30 AM 40.9°F4.9°C 37.3°F2.9°C 87% 5.8 mph NNE9.3 kmh NNE 10.4 mph16.7 kmh 29.79 in1008.8 mb - 0.00 in0.0 mm 0.18 in4.6 mm
08:15 AM 40.9°F4.9°C 37.9°F3.3°C 89% 2.3 mph N3.7 kmh N 5.8 mph9.3 kmh 29.80 in1009.1 mb - 0.01 in0.3 mm 0.18 in4.6 mm
08:00 AM 40.7°F4.8°C 38.0°F3.3°C 90% Calm Calm 1.2 mph1.9 kmh 29.80 in1009.1 mb - 0.01 in0.3 mm 0.18 in4.6 mm
07:45 AM 40.4°F4.7°C 37.7°F3.2°C 90% 1.2 mph N1.9 kmh N 2.3 mph3.7 kmh 29.80 in1009.1 mb - 0.01 in0.3 mm 0.17 in4.3 mm
07:30 AM 40.0°F4.4°C 37.3°F2.9°C 90% Calm Calm 1.2 mph1.9 kmh 29.79 in1008.8 mb - 0.00 in0.0 mm 0.16 in4.1 mm
07:15 AM 39.6°F4.2°C 36.7°F2.6°C 89% Calm Calm -- 29.77 in1008.1 mb - 0.01 in0.3 mm 0.16 in4.1 mm
07:00 AM 39.6°F4.2°C 36.7°F2.6°C 89% Calm Calm -- 29.79 in1008.8 mb - 0.00 in0.0 mm 0.15 in3.8 mm
06:45 AM 39.5°F4.2°C 36.5°F2.5°C 89% Calm Calm -- 29.78 in1008.5 mb - 0.01 in0.3 mm 0.15 in3.8 mm
06:30 AM 39.5°F4.2°C 36.5°F2.5°C 89% Calm Calm -- 29.78 in1008.5 mb - 0.00 in0.0 mm 0.14 in3.6 mm
06:15 AM 39.3°F4.1°C 36.1°F2.3°C 88% Calm Calm -- 29.78 in1008.5 mb - 0.01 in0.3 mm 0.14 in3.6 mm
06:00 AM 39.3°F4.1°C 36.0°F2.2°C 88% Calm Calm -- 29.79 in1008.8 mb - 0.00 in0.0 mm 0.13 in3.3 mm
05:45 AM 39.3°F4.1°C 35.8°F2.1°C 87% Calm Calm -- 29.80 in1009.1 mb - 0.01 in0.3 mm 0.13 in3.3 mm
05:30 AM 39.7°F4.3°C 36.1°F2.3°C 87% 2.3 mph N3.7 kmh N 6.9 mph11.1 kmh 29.80 in1009.1 mb - 0.00 in0.0 mm 0.12 in3.0 mm
05:15 AM 40.2°F4.6°C 36.3°F2.4°C 86% 3.5 mph N5.6 kmh N 5.8 mph9.3 kmh 29.81 in1009.5 mb - 0.01 in0.3 mm 0.12 in3.0 mm
05:00 AM 41.1°F5.1°C 37.2°F2.9°C 86% 5.8 mph N9.3 kmh N 6.9 mph11.1 kmh 29.80 in1009.1 mb - 0.01 in0.3 mm 0.11 in2.8 mm
04:45 AM 42.0°F5.6°C 37.8°F3.2°C 85% 6.9 mph N11.1 kmh N 13.8 mph22.2 kmh 29.80 in1009.1 mb - 0.00 in0.0 mm 0.10 in2.5 mm
04:30 AM 43.3°F6.3°C 39.4°F4.1°C 86% 8.1 mph NNW13.0 kmh NNW 6.9 mph11.1 kmh 29.81 in1009.5 mb - 0.01 in0.3 mm 0.10 in2.5 mm
04:15 AM 44.2°F6.8°C 40.6°F4.8°C 87% Calm Calm -- 29.80 in1009.1 mb - 0.00 in0.0 mm 0.09 in2.3 mm
04:00 AM 44.8°F7.1°C 41.2°F5.1°C 87% 4.6 mph N7.4 kmh N 8.1 mph13.0 kmh 29.77 in1008.1 mb - 0.01 in0.3 mm 0.09 in2.3 mm
03:45 AM 45.0°F7.2°C 41.4°F5.2°C 87% 1.2 mph N1.9 kmh N 2.3 mph3.7 kmh 29.78 in1008.5 mb - 0.00 in0.0 mm 0.08 in2.0 mm
03:30 AM 45.2°F7.3°C 41.6°F5.3°C 87% 2.3 mph NNE3.7 kmh NNE 2.3 mph3.7 kmh 29.76 in1007.8 mb - 0.01 in0.3 mm 0.08 in2.0 mm
03:15 AM 45.4°F7.4°C 42.1°F5.6°C 88% Calm Calm 2.3 mph3.7 kmh 29.76 in1007.8 mb - 0.00 in0.0 mm 0.07 in1.8 mm
03:00 AM 45.5°F7.5°C 42.2°F5.7°C 88% 2.3 mph N3.7 kmh N 3.5 mph5.6 kmh 29.75 in1007.5 mb - 0.01 in0.3 mm 0.07 in1.8 mm
02:45 AM 45.6°F7.6°C 42.0°F5.6°C 87% 1.2 mph N1.9 kmh N 2.3 mph3.7 kmh 29.76 in1007.8 mb - 0.00 in0.0 mm 0.06 in1.5 mm
02:30 AM 45.8°F7.7°C 42.2°F5.7°C 87% Calm Calm 4.6 mph7.4 kmh 29.77 in1008.1 mb - 0.01 in0.3 mm 0.06 in1.5 mm
02:15 AM 46.1°F7.8°C 42.1°F5.6°C 86% Calm Calm -- 29.77 in1008.1 mb - 0.01 in0.3 mm 0.05 in1.3 mm
02:00 AM 46.5°F8.1°C 42.2°F5.7°C 85% Calm Calm 2.3 mph3.7 kmh 29.75 in1007.5 mb - 0.01 in0.3 mm 0.05 in1.3 mm
01:45 AM 46.9°F8.3°C 42.0°F5.6°C 83% 1.2 mph NW1.9 kmh NW -- 29.77 in1008.1 mb - 0.00 in0.0 mm 0.04 in1.0 mm
01:30 AM 47.6°F8.7°C 42.1°F5.6°C 81% 1.2 mph NW1.9 kmh NW 3.5 mph5.6 kmh 29.76 in1007.8 mb - 0.01 in0.3 mm 0.04 in1.0 mm
01:15 AM 48.5°F9.2°C 42.3°F5.7°C 79% Calm Calm 3.5 mph5.6 kmh 29.75 in1007.5 mb - 0.00 in0.0 mm 0.03 in0.8 mm
01:00 AM 48.9°F9.4°C 41.3°F5.2°C 75% Calm Calm -- 29.75 in1007.5 mb - 0.01 in0.3 mm 0.03 in0.8 mm
12:45 AM 49.0°F9.4°C 41.1°F5.1°C 74% 4.6 mph NW7.4 kmh NW 4.6 mph7.4 kmh 29.74 in1007.1 mb - 0.01 in0.3 mm 0.02 in0.5 mm
12:30 AM 49.3°F9.6°C 41.4°F5.2°C 74% 8.1 mph NNW13.0 kmh NNW 12.7 mph20.4 kmh 29.73 in1006.8 mb - 0.00 in0.0 mm 0.01 in0.3 mm
12:15 AM 49.4°F9.7°C 41.8°F5.4°C 75% 4.6 mph NNW7.4 kmh NNW 4.6 mph7.4 kmh 29.73 in1006.8 mb - 0.01 in0.3 mm 0.01 in0.3 mm
12:01 AM 49.6°F9.8°C 42.0°F5.6°C 75% 6.9 mph N11.1 kmh N 9.2 mph14.8 kmh 29.73 in1006.8 mb - 0.01 in0.3 mm 0.01 in0.3 mm